Time;durP1;ratioP1;P1;durP2;ratioP2;P2;SDS_P1;SDS_P2;PMS_P1;PMS_P2;Temp;Humidity;BMP_temperature;BMP_pressure;BME280_temperature;BME280_humidity;BME280_pressure;Samples;Min_cycle;Max_cycle;Signal;HPM_P1;HPM_P2
2023/02/18 00:00:29;;;;;;;2.33;1.80;;;;;16.30;101072.00;;;;2086187;28;20216;-51
2023/02/18 00:01:30;;;;;;;1.90;1.70;;;;;16.30;101080.00;;;;2086658;28;20212;-50
2023/02/18 00:02:31;;;;;;;2.00;1.80;;;;;16.30;101078.00;;;;2087627;28;20270;-51
2023/02/18 00:03:31;;;;;;;2.05;1.85;;;;;16.30;101077.00;;;;2087322;28;20259;-51
2023/02/18 00:04:32;;;;;;;2.17;2.07;;;;;16.30;101070.00;;;;2087629;28;20715;-51
2023/02/18 00:05:32;;;;;;;2.40;2.20;;;;;16.30;101080.00;;;;2086646;28;20217;-50
2023/02/18 00:06:33;;;;;;;3.03;1.97;;;;;16.30;101067.00;;;;2087236;28;20353;-50
2023/02/18 00:07:34;;;;;;;2.35;2.15;;;;;16.30;101077.00;;;;2086538;28;20216;-51
2023/02/18 00:08:35;;;;;;;2.17;1.98;;;;;16.30;101087.00;;;;2085506;28;20223;-50
2023/02/18 00:09:37;;;;;;;1.97;1.87;;;;;16.30;101085.00;;;;2087334;28;20222;-51
2023/02/18 00:10:40;;;;;;;2.33;2.13;;;;;16.30;100901.00;;;;2087168;28;20325;-50
2023/02/18 00:11:40;;;;;;;2.00;1.90;;;;;16.30;101080.00;;;;2087613;28;20288;-51
2023/02/18 00:12:40;;;;;;;2.20;2.00;;;;;16.30;101081.00;;;;2087366;28;20235;-52
2023/02/18 00:13:41;;;;;;;1.87;1.77;;;;;16.30;101082.00;;;;2087403;28;20232;-51
2023/02/18 00:14:41;;;;;;;2.07;1.90;;;;;16.30;101090.00;;;;2087616;28;20205;-50
2023/02/18 00:15:41;;;;;;;2.60;2.40;;;;;16.30;101075.00;;;;2087637;28;20208;-50
2023/02/18 00:16:42;;;;;;;2.23;2.03;;;;;16.30;101079.00;;;;2086388;28;20323;-51
2023/02/18 00:17:42;;;;;;;1.97;1.77;;;;;16.40;101089.00;;;;2087922;28;20842;-51
2023/02/18 00:18:43;;;;;;;2.00;1.90;;;;;16.40;101082.00;;;;2086699;28;20220;-49
2023/02/18 00:19:43;;;;;;;1.70;1.60;;;;;16.40;101082.00;;;;2087358;28;20699;-51
2023/02/18 00:20:43;;;;;;;2.33;2.20;;;;;16.40;101079.00;;;;2087714;28;20550;-50
2023/02/18 00:21:44;;;;;;;2.10;2.00;;;;;16.40;101081.00;;;;2087604;28;20233;-50
2023/02/18 00:22:44;;;;;;;1.80;1.70;;;;;16.40;101075.00;;;;2087484;28;20247;-52
2023/02/18 00:23:44;;;;;;;2.13;1.93;;;;;16.40;101068.00;;;;2087787;28;20219;-51
2023/02/18 00:24:45;;;;;;;1.73;1.63;;;;;16.30;101070.00;;;;2086388;28;20221;-51
2023/02/18 00:25:45;;;;;;;2.10;1.90;;;;;16.30;101061.00;;;;2087480;28;20233;-51
2023/02/18 00:26:45;;;;;;;2.70;2.50;;;;;16.30;101066.00;;;;2086560;28;20282;-51
2023/02/18 00:27:46;;;;;;;2.00;1.80;;;;;16.30;101069.00;;;;2070590;28;20206;-51
2023/02/18 00:28:50;;;;;;;1.90;1.80;;;;;16.30;101058.00;;;;2077796;28;20213;-51
2023/02/18 00:29:50;;;;;;;1.90;1.80;;;;;16.30;101055.00;;;;2086401;28;20209;-51
2023/02/18 00:30:51;;;;;;;2.10;1.90;;;;;16.30;101056.00;;;;2087506;28;20626;-51
2023/02/18 00:31:51;;;;;;;2.00;1.83;;;;;16.30;101066.00;;;;2087572;28;20678;-51
2023/02/18 00:32:51;;;;;;;2.13;2.03;;;;;16.30;101051.00;;;;2087602;28;21245;-51
2023/02/18 00:33:52;;;;;;;2.50;2.30;;;;;16.30;101055.00;;;;2087716;28;20592;-51
2023/02/18 00:34:52;;;;;;;2.00;1.90;;;;;16.30;101046.00;;;;2087727;28;20303;-50
2023/02/18 00:35:52;;;;;;;2.20;2.10;;;;;16.30;101052.00;;;;2086870;28;20217;-51
2023/02/18 00:36:53;;;;;;;2.33;2.13;;;;;16.30;101040.00;;;;2070310;28;20257;-50
2023/02/18 00:37:53;;;;;;;2.63;2.43;;;;;16.30;101041.00;;;;2077837;28;20316;-50
2023/02/18 00:38:58;;;;;;;2.40;2.20;;;;;16.30;101048.00;;;;2086186;28;20213;-51
2023/02/18 00:39:58;;;;;;;2.15;1.95;;;;;16.30;101040.00;;;;2087285;28;20216;-51
2023/02/18 00:40:59;;;;;;;2.40;2.20;;;;;16.30;101035.00;;;;2087506;28;20290;-51
2023/02/18 00:41:59;;;;;;;2.47;2.27;;;;;16.30;101040.00;;;;2087427;28;20213;-51
2023/02/18 00:42:59;;;;;;;2.20;2.00;;;;;16.30;101033.00;;;;2087442;28;20216;-51
2023/02/18 00:44:00;;;;;;;2.27;2.07;;;;;16.30;101041.00;;;;2087300;28;20229;-51
2023/02/18 00:45:00;;;;;;;1.80;1.70;;;;;16.30;101041.00;;;;2087692;28;20219;-52
2023/02/18 00:46:01;;;;;;;1.80;1.70;;;;;16.30;101036.00;;;;2087445;28;20304;-50
2023/02/18 00:47:01;;;;;;;1.90;1.80;;;;;16.30;101046.00;;;;2087639;28;20218;-51
2023/02/18 00:48:01;;;;;;;2.20;2.00;;;;;16.30;101046.00;;;;2085707;28;20771;-51
2023/02/18 00:49:02;;;;;;;2.40;2.10;;;;;16.30;101046.00;;;;2087063;28;20647;-51
2023/02/18 00:50:02;;;;;;;2.30;2.10;;;;;16.30;101041.00;;;;2087296;28;20821;-50
2023/02/18 00:51:03;;;;;;;2.50;2.30;;;;;16.30;101038.00;;;;2087581;28;21022;-50
2023/02/18 00:52:03;;;;;;;2.07;1.97;;;;;16.30;101045.00;;;;2087769;28;20224;-50
2023/02/18 00:53:04;;;;;;;2.30;2.10;;;;;16.30;101041.00;;;;2087874;28;20646;-50
2023/02/18 00:54:04;;;;;;;2.50;2.30;;;;;16.30;101026.00;;;;2087247;28;20223;-51
2023/02/18 00:55:05;;;;;;;2.17;2.03;;;;;16.30;101027.00;;;;2087462;28;20259;-51
2023/02/18 00:56:05;;;;;;;2.90;2.30;;;;;16.30;101026.00;;;;2087493;28;20229;-50
2023/02/18 00:57:05;;;;;;;1.90;1.77;;;;;16.30;101030.00;;;;2086318;28;20275;-51
2023/02/18 00:58:06;;;;;;;2.40;2.20;;;;;16.30;101027.00;;;;2086295;28;20213;-51
2023/02/18 00:59:06;;;;;;;2.30;2.10;;;;;16.30;101029.00;;;;2087399;28;20237;-51
2023/02/18 01:00:07;;;;;;;2.10;1.90;;;;;16.30;101021.00;;;;2087255;28;20212;-52
2023/02/18 01:01:08;;;;;;;2.20;2.00;;;;;16.30;101020.00;;;;2087007;28;20221;-51
2023/02/18 01:02:08;;;;;;;2.20;2.03;;;;;16.30;101025.00;;;;2087074;28;20478;-51
2023/02/18 01:03:08;;;;;;;2.00;1.73;;;;;16.30;101024.00;;;;2087371;28;20255;-51
2023/02/18 01:04:09;;;;;;;2.73;2.53;;;;;16.30;101023.00;;;;2087388;28;20213;-51
2023/02/18 01:05:09;;;;;;;2.27;2.07;;;;;16.30;101024.00;;;;2087498;28;20221;-51
2023/02/18 01:06:10;;;;;;;2.80;2.50;;;;;16.30;101020.00;;;;2087368;28;20227;-51
2023/02/18 01:07:10;;;;;;;2.20;2.03;;;;;16.30;101015.00;;;;2087317;28;20716;-51
2023/02/18 01:08:10;;;;;;;2.10;1.90;;;;;16.30;101011.00;;;;2086636;28;20696;-52
2023/02/18 01:09:11;;;;;;;2.07;1.87;;;;;16.30;101011.00;;;;2087504;28;20647;-51
2023/02/18 01:10:11;;;;;;;2.60;2.40;;;;;16.30;100992.00;;;;2086946;28;20567;-51
2023/02/18 01:11:11;;;;;;;2.47;1.93;;;;;16.30;101014.00;;;;2087584;28;20774;-51
2023/02/18 01:12:12;;;;;;;2.77;2.57;;;;;16.30;101009.00;;;;2086654;28;20704;-50
2023/02/18 01:13:12;;;;;;;2.53;2.20;;;;;16.30;101013.00;;;;2087287;28;20220;-51
2023/02/18 01:14:13;;;;;;;2.00;1.90;;;;;16.30;101012.00;;;;2087353;28;20472;-51
2023/02/18 01:15:14;;;;;;;2.50;2.30;;;;;16.30;101020.00;;;;2087258;28;20220;-52
2023/02/18 01:16:14;;;;;;;2.50;2.30;;;;;15.90;101017.00;;;;2087346;28;20213;-51
2023/02/18 01:17:14;;;;;;;2.60;2.40;;;;;16.30;101024.00;;;;2087367;28;20216;-51
2023/02/18 01:18:15;;;;;;;1.90;1.80;;;;;16.30;101015.00;;;;2086696;28;20217;-51
2023/02/18 01:19:15;;;;;;;2.30;2.10;;;;;16.30;101014.00;;;;2087267;28;20224;-51
2023/02/18 01:20:15;;;;;;;2.07;1.87;;;;;16.30;101016.00;;;;2086756;28;20294;-50
2023/02/18 01:21:16;;;;;;;2.27;2.10;;;;;16.30;101012.00;;;;2087486;28;20209;-51
2023/02/18 01:22:16;;;;;;;2.63;2.43;;;;;16.30;101016.00;;;;2086905;28;20215;-51
2023/02/18 01:23:17;;;;;;;2.33;2.13;;;;;16.30;101012.00;;;;2086758;28;20212;-50
2023/02/18 01:24:17;;;;;;;2.07;1.97;;;;;16.30;101016.00;;;;2087491;28;20216;-51
2023/02/18 01:25:18;;;;;;;2.90;2.70;;;;;16.30;101014.00;;;;2087169;28;20205;-51
2023/02/18 01:26:18;;;;;;;2.37;2.17;;;;;16.30;101004.00;;;;2087075;28;20588;-51
2023/02/18 01:27:18;;;;;;;3.00;2.70;;;;;16.30;101015.00;;;;2087361;28;20205;-51
2023/02/18 01:28:20;;;;;;;2.40;2.20;;;;;16.30;101016.00;;;;2085531;28;20295;-51
2023/02/18 01:29:20;;;;;;;2.00;1.88;;;;;16.30;101016.00;;;;2087237;28;20205;-51
2023/02/18 01:30:21;;;;;;;2.43;2.23;;;;;16.30;101015.00;;;;2087222;28;20201;-51
2023/02/18 01:31:21;;;;;;;2.60;2.40;;;;;16.30;101007.00;;;;2087293;28;20270;-51
2023/02/18 01:32:22;;;;;;;2.13;2.03;;;;;16.30;101010.00;;;;2087409;28;20713;-51
2023/02/18 01:33:22;;;;;;;2.57;2.37;;;;;16.30;101010.00;;;;2087464;28;20728;-51
2023/02/18 01:34:22;;;;;;;2.30;2.10;;;;;16.30;101006.00;;;;2086957;28;20216;-52
2023/02/18 01:35:23;;;;;;;2.43;2.23;;;;;16.30;101005.00;;;;2087108;28;20205;-51
2023/02/18 01:36:23;;;;;;;2.90;2.23;;;;;16.30;101007.00;;;;2086849;28;20288;-52
2023/02/18 01:37:23;;;;;;;2.60;2.40;;;;;16.30;101001.00;;;;2087393;28;20208;-51
2023/02/18 01:38:24;;;;;;;2.50;2.30;;;;;16.30;100997.00;;;;2085377;28;20209;-51
2023/02/18 01:39:24;;;;;;;2.63;2.43;;;;;16.30;101007.00;;;;2087381;28;20205;-51
2023/02/18 01:40:26;;;;;;;2.37;2.17;;;;;16.30;101003.00;;;;2086500;28;20261;-52
2023/02/18 01:41:26;;;;;;;2.50;2.30;;;;;16.30;101003.00;;;;2086318;28;20209;-51
2023/02/18 01:42:27;;;;;;;2.80;2.60;;;;;16.30;101001.00;;;;2086661;28;20570;-51
2023/02/18 01:43:27;;;;;;;2.75;2.40;;;;;16.30;100999.00;;;;2085652;28;20221;-51
2023/02/18 01:44:28;;;;;;;2.63;2.43;;;;;16.30;100987.00;;;;2085994;28;20716;-50
2023/02/18 01:45:36;;;;;;;2.30;2.10;;;;;16.30;100996.00;;;;2086475;28;20216;-51
2023/02/18 01:46:36;;;;;;;2.63;2.42;;;;;16.30;100986.00;;;;2086384;28;20217;-51
2023/02/18 01:47:36;;;;;;;2.60;2.40;;;;;16.30;100991.00;;;;2086044;28;20689;-50
2023/02/18 01:48:40;;;;;;;2.77;2.57;;;;;16.30;100982.00;;;;2086006;28;20612;-51
2023/02/18 01:49:40;;;;;;;2.60;2.40;;;;;16.30;100981.00;;;;2077297;28;20218;-51
2023/02/18 01:50:46;;;;;;;3.10;2.87;;;;;16.30;100984.00;;;;2069414;28;20214;-51
2023/02/18 01:51:52;;;;;;;1.92;1.83;;;;;16.30;100985.00;;;;2086012;28;20262;-51
2023/02/18 01:52:52;;;;;;;2.70;2.50;;;;;16.40;100985.00;;;;2085564;28;20328;-52
2023/02/18 01:54:28;;;;;;;2.30;2.10;;;;;16.30;100987.00;;;;2085662;28;20241;-51
2023/02/18 01:55:28;;;;;;;2.63;2.42;;;;;16.30;100982.00;;;;2086209;28;20204;-50
2023/02/18 01:56:53;;;;;;;3.00;2.30;;;;;16.30;100990.00;;;;2085394;28;20200;-51
2023/02/18 01:57:54;;;;;;;2.60;2.40;;;;;16.30;100985.00;;;;2080327;28;20220;-50
2023/02/18 01:58:55;;;;;;;2.33;2.13;;;;;16.30;100994.00;;;;2072223;28;20644;-52
2023/02/18 02:00:02;;;;;;;2.40;2.20;;;;;16.30;100977.00;;;;2070196;28;20210;-52
2023/02/18 02:01:03;;;;;;;2.00;1.90;;;;;16.30;100908.00;;;;2079086;28;20216;-50
2023/02/18 02:02:03;;;;;;;3.03;2.60;;;;;16.40;100955.00;;;;2078754;28;21067;-51
2023/02/18 02:03:03;;;;;;;2.60;2.40;;;;;16.30;100975.00;;;;2068815;28;20253;-51
2023/02/18 02:04:04;;;;;;;2.40;2.20;;;;;16.30;100975.00;;;;2077848;28;20581;-51
2023/02/18 02:05:04;;;;;;;2.30;2.10;;;;;16.30;100985.00;;;;2086468;28;20220;-51
2023/02/18 02:06:17;;;;;;;2.40;2.20;;;;;16.30;100979.00;;;;2086326;28;20217;-50
2023/02/18 02:07:18;;;;;;;2.80;2.60;;;;;16.30;100983.00;;;;2086378;28;20700;-51
2023/02/18 02:08:18;;;;;;;2.50;2.30;;;;;16.30;100978.00;;;;2076387;28;20213;-51
2023/02/18 02:09:19;;;;;;;2.90;2.60;;;;;16.30;100978.00;;;;2077603;28;20218;-51
2023/02/18 02:10:20;;;;;;;2.80;2.60;;;;;16.30;100974.00;;;;2077929;28;20217;-51
2023/02/18 02:11:47;;;;;;;2.40;2.20;;;;;16.30;100972.00;;;;2069748;28;20206;-51
2023/02/18 02:12:56;;;;;;;2.42;2.22;;;;;16.30;100968.00;;;;2086337;28;20217;-51
2023/02/18 02:14:24;;;;;;;2.80;2.17;;;;;16.30;100960.00;;;;2085917;28;20288;-51
2023/02/18 02:15:40;;;;;;;2.20;2.10;;;;;16.30;100963.00;;;;2086153;28;20578;-52
2023/02/18 02:16:49;;;;;;;2.50;2.30;;;;;16.30;100969.00;;;;2064448;28;20891;-51
2023/02/18 02:18:31;;;;;;;2.25;2.05;;;;;16.30;100967.00;;;;2072889;28;20681;-51
2023/02/18 02:19:53;;;;;;;2.35;2.20;;;;;16.30;100962.00;;;;2085473;28;20315;-50
2023/02/18 02:21:14;;;;;;;2.55;2.35;;;;;16.30;100971.00;;;;2086388;28;20669;-51
2023/02/18 02:22:24;;;;;;;2.42;2.22;;;;;16.30;100962.00;;;;2086220;28;20228;-52
2023/02/18 02:23:44;;;;;;;2.60;2.40;;;;;16.30;100969.00;;;;2079511;28;20209;-51
2023/02/18 02:24:53;;;;;;;2.83;2.55;;;;;16.30;100970.00;;;;2086264;28;20215;-50
2023/02/18 02:26:14;;;;;;;2.55;2.35;;;;;16.30;100962.00;;;;2086042;28;20227;-51
2023/02/18 02:27:18;;;;;;;2.50;2.30;;;;;16.30;100968.00;;;;2086206;28;20276;-51
2023/02/18 02:28:43;;;;;;;2.55;2.35;;;;;16.30;100969.00;;;;2086102;28;20207;-50
2023/02/18 02:30:11;;;;;;;2.72;2.53;;;;;16.30;100962.00;;;;2085620;28;20725;-50
2023/02/18 02:31:28;;;;;;;2.40;2.20;;;;;16.30;100963.00;;;;2082604;28;20213;-51
2023/02/18 02:32:58;;;;;;;2.20;2.00;;;;;16.30;100958.00;;;;2079663;28;20247;-50
2023/02/18 02:34:04;;;;;;;2.38;2.15;;;;;16.30;100946.00;;;;2080635;28;20564;-51
2023/02/18 02:35:08;;;;;;;2.20;2.00;;;;;16.30;100956.00;;;;2086230;28;20220;-51
2023/02/18 02:36:30;;;;;;;2.75;2.25;;;;;16.30;100940.00;;;;2086065;28;20219;-50
2023/02/18 02:37:48;;;;;;;2.92;2.72;;;;;16.30;100968.00;;;;2086055;28;20214;-50
2023/02/18 02:38:55;;;;;;;2.00;1.90;;;;;16.30;100958.00;;;;2086101;28;20212;-49
2023/02/18 02:40:29;;;;;;;2.53;2.33;;;;;16.30;100940.00;;;;2077739;28;20213;-51
2023/02/18 02:41:38;;;;;;;2.72;2.53;;;;;16.30;100927.00;;;;2076126;28;20247;-51
2023/02/18 02:42:45;;;;;;;2.33;2.17;;;;;16.30;100944.00;;;;2077596;28;20249;-51
2023/02/18 02:44:23;;;;;;;2.60;2.40;;;;;16.30;100943.00;;;;2071997;28;20667;-51
2023/02/18 02:45:35;;;;;;;2.60;2.40;;;;;16.30;100936.00;;;;2085159;28;20321;-51
2023/02/18 02:46:40;;;;;;;2.25;2.05;;;;;16.30;100935.00;;;;2086580;28;20218;-51
2023/02/18 02:47:43;;;;;;;2.47;2.28;;;;;16.30;100936.00;;;;2077985;28;20210;-51
2023/02/18 02:48:49;;;;;;;2.22;2.03;;;;;16.30;100932.00;;;;2077933;28;20652;-50
2023/02/18 02:49:57;;;;;;;2.17;1.98;;;;;16.30;100938.00;;;;2087080;28;20219;-50
2023/02/18 02:51:04;;;;;;;2.42;2.22;;;;;16.30;100944.00;;;;2077755;28;20221;-51
2023/02/18 02:52:18;;;;;;;2.30;2.10;;;;;16.30;100933.00;;;;2072044;28;20649;-51
2023/02/18 02:53:23;;;;;;;2.70;2.50;;;;;16.30;100944.00;;;;2079736;28;20564;-50
2023/02/18 02:54:24;;;;;;;2.25;2.05;;;;;16.30;100939.00;;;;2070694;28;20214;-50
2023/02/18 02:55:25;;;;;;;2.83;2.50;;;;;16.30;100937.00;;;;2070127;28;20284;-52
2023/02/18 02:56:25;;;;;;;2.90;2.67;;;;;16.30;100942.00;;;;2085089;28;20216;-50
2023/02/18 02:57:25;;;;;;;2.60;2.40;;;;;16.30;100938.00;;;;2086949;28;20228;-51
2023/02/18 02:58:26;;;;;;;2.90;2.20;;;;;16.30;100928.00;;;;2086021;28;20613;-51
2023/02/18 02:59:26;;;;;;;2.53;2.33;;;;;16.30;100937.00;;;;2087093;28;20227;-51
2023/02/18 03:00:54;;;;;;;2.40;2.20;;;;;16.30;100847.00;;;;2077972;28;20734;-51
2023/02/18 03:02:22;;;;;;;2.25;2.10;;;;;16.30;100935.00;;;;2081748;28;20225;-51
2023/02/18 03:03:33;;;;;;;2.28;2.13;;;;;16.30;100937.00;;;;2086793;28;20221;-51
2023/02/18 03:04:41;;;;;;;2.60;2.40;;;;;16.30;100910.00;;;;2085933;28;20705;-51
2023/02/18 03:06:23;;;;;;;2.33;2.13;;;;;16.30;100928.00;;;;2070904;28;20210;-50
2023/02/18 03:07:45;;;;;;;2.60;2.40;;;;;16.30;100933.00;;;;2050031;28;20234;-50
2023/02/18 03:08:51;;;;;;;2.33;2.13;;;;;16.30;100914.00;;;;2051486;28;20212;-51
2023/02/18 03:10:19;;;;;;;2.40;2.20;;;;;16.30;100924.00;;;;2070910;28;20653;-51
2023/02/18 03:11:20;;;;;;;2.50;2.30;;;;;16.30;100927.00;;;;2085817;28;20586;-51
2023/02/18 03:12:40;;;;;;;2.43;2.23;;;;;16.30;100919.00;;;;2084774;28;20209;-51
2023/02/18 03:13:58;;;;;;;2.10;1.90;;;;;16.30;100912.00;;;;2085878;28;20266;-51
2023/02/18 03:15:04;;;;;;;2.28;2.08;;;;;16.30;100907.00;;;;2085002;28;20223;-51
2023/02/18 03:16:04;;;;;;;2.35;2.15;;;;;16.30;100900.00;;;;2085404;28;20212;-50
2023/02/18 03:17:14;;;;;;;2.17;1.97;;;;;16.30;100903.00;;;;2084471;28;20263;-50
2023/02/18 03:18:38;;;;;;;2.40;2.20;;;;;16.30;100891.00;;;;2076986;28;20772;-50
2023/02/18 03:19:41;;;;;;;2.50;2.30;;;;;16.30;100888.00;;;;2070747;28;20221;-51
2023/02/18 03:20:52;;;;;;;2.80;2.55;;;;;16.30;100887.00;;;;2085691;28;20225;-50
2023/02/18 03:21:58;;;;;;;2.47;2.28;;;;;16.30;100874.00;;;;2071138;28;20218;-51
2023/02/18 03:22:59;;;;;;;2.30;2.10;;;;;16.30;100892.00;;;;2064075;28;20302;-51
2023/02/18 03:24:08;;;;;;;2.47;2.27;;;;;16.30;100889.00;;;;2069575;28;20218;-52
2023/02/18 03:25:08;;;;;;;2.58;2.38;;;;;16.30;100893.00;;;;2071436;28;20256;-51
2023/02/18 03:26:08;;;;;;;2.00;1.90;;;;;16.30;100872.00;;;;2076710;28;20213;-51
2023/02/18 03:27:15;;;;;;;2.83;2.30;;;;;16.30;100880.00;;;;2077033;28;20218;-52
2023/02/18 03:28:19;;;;;;;2.20;2.00;;;;;16.30;100875.00;;;;2068616;28;20229;-51
2023/02/18 03:29:19;;;;;;;1.92;1.80;;;;;16.30;100877.00;;;;2070259;28;20289;-50
2023/02/18 03:30:31;;;;;;;2.23;2.03;;;;;16.30;100873.00;;;;2077883;28;20882;-50
2023/02/18 03:31:31;;;;;;;2.38;1.92;;;;;16.30;100878.00;;;;2079698;28;20578;-51
2023/02/18 03:32:32;;;;;;;2.20;2.00;;;;;16.30;100876.00;;;;2086498;28;20231;-51
2023/02/18 03:33:41;;;;;;;1.90;1.80;;;;;16.30;100882.00;;;;2078504;28;20296;-51
2023/02/18 03:34:43;;;;;;;2.20;2.00;;;;;16.30;100880.00;;;;2062509;28;20302;-51
2023/02/18 03:35:43;;;;;;;2.03;1.83;;;;;16.30;100849.00;;;;2070631;28;20298;-51
2023/02/18 03:36:44;;;;;;;2.50;2.30;;;;;16.30;100871.00;;;;2070610;28;20272;-50
2023/02/18 03:37:50;;;;;;;2.33;2.13;;;;;16.30;100867.00;;;;2062731;28;20214;-51
2023/02/18 03:39:02;;;;;;;2.30;2.10;;;;;16.30;100874.00;;;;2071354;28;20602;-50
2023/02/18 03:40:02;;;;;;;2.08;1.98;;;;;16.30;100864.00;;;;2077004;28;20217;-51
2023/02/18 03:41:03;;;;;;;2.20;2.00;;;;;16.30;100866.00;;;;2071141;28;20535;-51
2023/02/18 03:42:03;;;;;;;2.30;2.10;;;;;16.30;100880.00;;;;2077950;28;20226;-50
2023/02/18 03:43:04;;;;;;;2.70;2.50;;;;;16.30;100868.00;;;;2086129;28;20470;-50
2023/02/18 03:44:06;;;;;;;1.70;1.60;;;;;16.30;100863.00;;;;2086287;28;20225;-50
2023/02/18 03:45:07;;;;;;;1.75;1.65;;;;;16.30;100855.00;;;;2087060;28;20224;-50
2023/02/18 03:46:07;;;;;;;2.50;2.30;;;;;16.30;100856.00;;;;2087304;28;20753;-50
2023/02/18 03:47:07;;;;;;;2.10;2.00;;;;;16.30;100838.00;;;;2087495;28;20286;-50
2023/02/18 03:48:08;;;;;;;2.17;1.97;;;;;16.30;100865.00;;;;2086008;28;20493;-55
2023/02/18 03:49:09;;;;;;;2.00;1.90;;;;;16.30;100862.00;;;;2086326;28;20296;-53
2023/02/18 03:50:09;;;;;;;2.47;2.28;;;;;16.30;100868.00;;;;2078754;28;20306;-52
2023/02/18 03:51:09;;;;;;;2.37;2.17;;;;;16.30;100856.00;;;;2078886;28;20272;-51
2023/02/18 03:52:10;;;;;;;2.10;1.90;;;;;16.30;100860.00;;;;2087911;28;20220;-51
2023/02/18 03:53:10;;;;;;;2.13;1.90;;;;;16.30;100853.00;;;;2087865;28;20576;-51
2023/02/18 03:54:13;;;;;;;2.13;1.93;;;;;16.30;100855.00;;;;2087085;28;20213;-51
2023/02/18 03:55:13;;;;;;;2.30;2.10;;;;;16.30;100852.00;;;;2087869;28;21256;-51
2023/02/18 03:56:13;;;;;;;2.20;2.00;;;;;16.30;100854.00;;;;2087972;28;20221;-51
2023/02/18 03:57:14;;;;;;;2.10;2.00;;;;;16.30;100852.00;;;;2082309;28;20221;-50
2023/02/18 03:58:14;;;;;;;1.90;1.80;;;;;16.30;100850.00;;;;2094495;28;20248;-51
2023/02/18 03:59:14;;;;;;;2.10;1.90;;;;;16.30;100844.00;;;;2090474;28;20278;-51
2023/02/18 04:00:15;;;;;;;1.93;1.80;;;;;16.30;100847.00;;;;2087800;28;20331;-52
2023/02/18 04:01:15;;;;;;;2.20;2.00;;;;;16.30;100854.00;;;;2087518;28;20244;-51
2023/02/18 04:02:16;;;;;;;1.73;1.63;;;;;16.30;100845.00;;;;2087776;28;20646;-51
2023/02/18 04:03:16;;;;;;;2.10;1.90;;;;;16.30;100856.00;;;;2087929;28;20219;-50
2023/02/18 04:04:16;;;;;;;2.00;1.80;;;;;16.30;100846.00;;;;2087438;28;20213;-51
2023/02/18 04:05:17;;;;;;;1.77;1.67;;;;;16.30;100843.00;;;;2087530;28;20224;-51
2023/02/18 04:06:17;;;;;;;1.70;1.60;;;;;16.30;100846.00;;;;2087507;28;20216;-50
2023/02/18 04:07:17;;;;;;;1.80;1.70;;;;;16.30;100835.00;;;;2086989;28;20220;-50
2023/02/18 04:08:18;;;;;;;2.30;2.10;;;;;16.30;100844.00;;;;2086072;28;20227;-50
2023/02/18 04:09:18;;;;;;;2.40;2.20;;;;;16.30;100847.00;;;;2087812;28;20715;-51
2023/02/18 04:10:19;;;;;;;2.37;2.17;;;;;16.30;100839.00;;;;2087301;28;20779;-51
2023/02/18 04:11:19;;;;;;;2.15;2.05;;;;;16.30;100846.00;;;;2087701;28;20784;-51
2023/02/18 04:12:20;;;;;;;2.17;1.97;;;;;16.30;100831.00;;;;2087924;28;20254;-51
2023/02/18 04:13:20;;;;;;;2.47;2.10;;;;;16.30;100828.00;;;;2087893;28;20700;-51
2023/02/18 04:14:20;;;;;;;2.20;2.00;;;;;16.30;100827.00;;;;2087910;28;20685;-50
2023/02/18 04:15:21;;;;;;;2.10;1.90;;;;;16.30;100827.00;;;;2087576;28;20216;-50
2023/02/18 04:16:21;;;;;;;2.17;1.90;;;;;16.30;100824.00;;;;2087746;28;20217;-50
2023/02/18 04:17:21;;;;;;;1.87;1.63;;;;;16.30;100830.00;;;;2087704;28;20205;-51
2023/02/18 04:18:22;;;;;;;2.10;2.00;;;;;16.30;100821.00;;;;2086674;28;20213;-51
2023/02/18 04:19:22;;;;;;;2.00;1.80;;;;;16.30;100818.00;;;;2087488;28;20225;-51
2023/02/18 04:20:22;;;;;;;2.23;2.03;;;;;16.30;100823.00;;;;2087790;28;20274;-50
2023/02/18 04:21:23;;;;;;;1.73;1.63;;;;;16.30;100829.00;;;;2087487;28;20225;-49
2023/02/18 04:22:23;;;;;;;1.90;1.70;;;;;16.30;100829.00;;;;2087801;28;20270;-50
2023/02/18 04:23:24;;;;;;;2.00;1.90;;;;;16.30;100819.00;;;;2088061;28;20267;-50
2023/02/18 04:24:24;;;;;;;2.40;2.20;;;;;16.30;100822.00;;;;2088008;28;20224;-50
2023/02/18 04:25:24;;;;;;;2.10;1.90;;;;;16.30;100824.00;;;;2087714;28;20708;-50
2023/02/18 04:26:25;;;;;;;2.27;2.07;;;;;16.30;100821.00;;;;2087390;28;20217;-50
2023/02/18 04:27:25;;;;;;;1.90;1.80;;;;;16.30;100815.00;;;;2087924;28;20208;-50
2023/02/18 04:28:25;;;;;;;2.10;1.90;;;;;16.30;100814.00;;;;2087050;28;20862;-50
2023/02/18 04:29:26;;;;;;;1.80;1.70;;;;;16.30;100822.00;;;;2087936;28;20244;-50
2023/02/18 04:30:27;;;;;;;2.10;1.90;;;;;16.30;100814.00;;;;2086915;28;20205;-51
2023/02/18 04:31:27;;;;;;;1.70;1.60;;;;;16.30;100808.00;;;;2087333;28;20205;-51
2023/02/18 04:32:28;;;;;;;2.20;2.00;;;;;16.30;100810.00;;;;2087911;28;20237;-51
2023/02/18 04:33:28;;;;;;;1.90;1.80;;;;;16.30;100802.00;;;;2087918;28;20209;-51
2023/02/18 04:34:28;;;;;;;1.67;1.57;;;;;16.30;100797.00;;;;2087550;28;20271;-50
2023/02/18 04:35:28;;;;;;;1.80;1.70;;;;;16.30;100811.00;;;;2087538;28;20315;-50
2023/02/18 04:36:29;;;;;;;1.93;1.83;;;;;16.30;100807.00;;;;2087208;28;20239;-50
2023/02/18 04:37:29;;;;;;;1.83;1.73;;;;;16.30;100797.00;;;;2087498;28;20216;-51
2023/02/18 04:38:29;;;;;;;2.40;2.20;;;;;16.30;100808.00;;;;2086897;28;20288;-50
2023/02/18 04:39:30;;;;;;;2.00;1.87;;;;;16.30;100806.00;;;;2087823;28;20201;-50
2023/02/18 04:40:30;;;;;;;1.67;1.57;;;;;16.30;100807.00;;;;2087716;28;20216;-50
2023/02/18 04:41:30;;;;;;;2.00;1.80;;;;;16.30;100795.00;;;;2086707;28;20205;-50
2023/02/18 04:42:31;;;;;;;2.30;2.13;;;;;16.30;100797.00;;;;2087507;28;20212;-50
2023/02/18 04:43:31;;;;;;;1.90;1.80;;;;;16.30;100795.00;;;;2087576;28;20580;-49
2023/02/18 04:44:31;;;;;;;1.87;1.70;;;;;16.30;100785.00;;;;2087752;28;20251;-50
2023/02/18 04:45:32;;;;;;;1.97;1.87;;;;;16.30;100794.00;;;;2087833;28;20229;-50
2023/02/18 04:46:32;;;;;;;1.90;1.80;;;;;16.30;100794.00;;;;2087667;28;20220;-50
2023/02/18 04:47:32;;;;;;;1.83;1.73;;;;;16.30;100793.00;;;;2087677;28;20212;-50
2023/02/18 04:48:33;;;;;;;2.10;1.90;;;;;16.30;100783.00;;;;2086898;28;20278;-50
2023/02/18 04:49:34;;;;;;;1.70;1.60;;;;;16.30;100787.00;;;;2087563;28;20309;-51
2023/02/18 04:50:34;;;;;;;2.20;2.10;;;;;16.30;100797.00;;;;2087461;28;20217;-50
2023/02/18 04:51:36;;;;;;;1.60;1.50;;;;;16.30;100781.00;;;;2087467;28;20593;-50
2023/02/18 04:52:36;;;;;;;1.70;1.60;;;;;16.30;100787.00;;;;2087572;28;20205;-50
2023/02/18 04:53:37;;;;;;;1.47;1.37;;;;;16.30;100789.00;;;;2087584;28;20209;-51
2023/02/18 04:54:37;;;;;;;2.27;1.60;;;;;16.30;100787.00;;;;2087302;28;22248;-51
2023/02/18 04:55:37;;;;;;;1.83;1.73;;;;;16.30;100783.00;;;;2087735;28;20287;-50
2023/02/18 04:56:38;;;;;;;1.60;1.50;;;;;16.30;100781.00;;;;2087237;28;20265;-50
2023/02/18 04:57:38;;;;;;;2.10;1.70;;;;;16.30;100788.00;;;;2087292;28;20220;-51
2023/02/18 04:58:38;;;;;;;1.50;1.40;;;;;16.30;100788.00;;;;2086651;28;20236;-51
2023/02/18 04:59:39;;;;;;;1.80;1.70;;;;;16.30;100785.00;;;;2087727;28;20231;-51
2023/02/18 05:00:39;;;;;;;2.20;2.00;;;;;16.30;100788.00;;;;2087560;28;20221;-51
2023/02/18 05:01:39;;;;;;;1.60;1.50;;;;;16.30;100783.00;;;;2087575;28;20217;-51
2023/02/18 05:02:40;;;;;;;1.83;1.40;;;;;16.30;100777.00;;;;2087438;28;20282;-51
2023/02/18 05:03:40;;;;;;;1.63;1.50;;;;;16.30;100773.00;;;;2087353;28;20304;-50
2023/02/18 05:04:40;;;;;;;1.90;1.80;;;;;16.30;100768.00;;;;2087356;28;20223;-51
2023/02/18 05:05:41;;;;;;;1.57;1.47;;;;;16.30;100768.00;;;;2087401;28;20217;-51
2023/02/18 05:06:41;;;;;;;1.73;1.63;;;;;16.30;100763.00;;;;2087033;28;20225;-51
2023/02/18 05:07:42;;;;;;;1.67;1.57;;;;;16.30;100760.00;;;;2087544;28;20216;-50
2023/02/18 05:08:42;;;;;;;1.50;1.40;;;;;16.30;100767.00;;;;2086348;28;20512;-51
2023/02/18 05:09:42;;;;;;;2.07;1.80;;;;;16.30;100687.00;;;;2087606;28;20243;-51
2023/02/18 05:10:43;;;;;;;1.40;1.30;;;;;16.30;100761.00;;;;2087480;28;20221;-51
2023/02/18 05:11:43;;;;;;;2.03;1.80;;;;;16.30;100759.00;;;;2087061;28;20491;-51
2023/02/18 05:12:44;;;;;;;1.53;1.43;;;;;16.30;100759.00;;;;2086686;28;20300;-51
2023/02/18 05:13:44;;;;;;;1.63;1.53;;;;;16.30;100757.00;;;;2086507;28;20700;-51
2023/02/18 05:14:44;;;;;;;1.83;1.73;;;;;16.30;100756.00;;;;2087522;28;20685;-50